Terminal Aerodrome Forecast
Issued by NWS

Home | Current Version | Previous Version | Text Only | Print | Product List | Glossary On
Versions: 1 2 3 4 5 6 7 8 9 10 11 12 13
000
FTUS44 KLZK 300540
TAFLIT
TAF
KLIT 300540Z 3006/3106 VRB03KT P6SM SCT100 BKN250
      TEMPO 3009/3013 5SM BR
     FM301500 18007KT P6SM SCT050 BKN250
     FM310100 VRB03KT P6SM SCT250=

USA.gov is the U.S. government's official web portal to all federal, state and local government web resources and services.